createdAt,value
2023-05-25T00:03:05.014Z,97.12
2023-05-25T00:08:09.054Z,97.43
2023-05-25T00:13:12.809Z,97.24
2023-05-25T00:18:16.523Z,97.58
2023-05-25T00:23:21.763Z,97.90
2023-05-25T00:28:25.616Z,98.40
2023-05-25T00:33:29.655Z,98.90
2023-05-25T00:38:33.389Z,99.14
2023-05-25T00:43:37.240Z,99.08
2023-05-25T00:48:41.224Z,98.95
2023-05-25T00:53:44.988Z,99.26
2023-05-25T00:58:51.194Z,99.15
2023-05-25T01:03:56.846Z,99.48
2023-05-25T01:09:04.696Z,99.31
2023-05-25T01:14:09.595Z,99.40
2023-05-25T01:19:13.638Z,99.51
2023-05-25T01:24:32.781Z,99.87
2023-05-25T01:29:38.002Z,99.89
2023-05-25T01:34:44.264Z,100.00
2023-05-25T01:39:48.073Z,99.99
2023-05-25T01:44:51.930Z,100.00
2023-05-25T01:50:14.458Z,100.00
2023-05-25T01:55:19.851Z,100.00
2023-05-25T02:00:25.372Z,100.00
2023-05-25T02:05:29.358Z,100.00
2023-05-25T02:10:33.609Z,100.00
2023-05-25T02:15:38.095Z,100.00
2023-05-25T02:20:41.967Z,100.00
2023-05-25T02:25:46.851Z,100.00
2023-05-25T02:30:50.796Z,100.00
2023-05-25T02:35:55.766Z,100.00
2023-05-25T02:40:59.656Z,100.00
2023-05-25T02:46:03.612Z,100.00
2023-05-25T02:51:07.717Z,100.00
2023-05-25T02:56:11.835Z,100.00
2023-05-25T03:01:19.416Z,100.00
2023-05-25T03:06:29.004Z,100.00
2023-05-25T03:11:35.247Z,100.00
2023-05-25T03:16:40.450Z,100.00
2023-05-25T03:21:44.409Z,100.00
2023-05-25T03:26:51.703Z,100.00
2023-05-25T03:31:55.638Z,100.00
2023-05-25T03:37:04.078Z,100.00
2023-05-25T03:42:08.576Z,100.00
2023-05-25T03:47:13.898Z,100.00
2023-05-25T03:52:17.695Z,100.00
2023-05-25T03:57:21.711Z,100.00
2023-05-25T04:02:25.565Z,100.00
2023-05-25T04:07:31.463Z,100.00
2023-05-25T04:12:36.676Z,100.00
2023-05-25T04:17:41.520Z,100.00
2023-05-25T04:22:45.415Z,100.00
2023-05-25T04:27:49.612Z,100.00
2023-05-25T04:33:04.372Z,100.00
2023-05-25T04:38:27.454Z,100.00
2023-05-25T04:43:31.439Z,100.00
2023-05-25T04:48:39.516Z,100.00
2023-05-25T04:53:43.544Z,100.00
2023-05-25T04:58:47.501Z,100.00
2023-05-25T05:03:51.888Z,100.00
2023-05-25T05:08:58.099Z,100.00
2023-05-25T05:14:01.986Z,100.00
2023-05-25T05:19:06.564Z,100.00
2023-05-25T05:24:11.252Z,100.00
2023-05-25T05:29:15.047Z,100.00
2023-05-25T05:34:21.716Z,100.00
2023-05-25T05:39:25.661Z,100.00
2023-05-25T05:44:32.382Z,100.00
2023-05-25T05:49:39.646Z,100.00
2023-05-25T05:54:43.737Z,100.00
2023-05-25T05:59:51.003Z,100.00
2023-05-25T06:04:55.376Z,100.00
2023-05-25T06:10:03.932Z,100.00
2023-05-25T06:15:16.336Z,100.00
2023-05-25T06:20:22.777Z,100.00
2023-05-25T06:25:27.155Z,100.00
2023-05-25T06:30:32.145Z,100.00
2023-05-25T06:35:36.065Z,100.00
2023-05-25T06:40:40.078Z,100.00
2023-05-25T06:45:44.351Z,100.00
2023-05-25T06:50:49.141Z,100.00
2023-05-25T06:55:53.223Z,100.00
2023-05-25T07:00:57.085Z,100.00
2023-05-25T07:06:00.926Z,100.00
2023-05-25T07:11:05.150Z,100.00
2023-05-25T07:16:08.973Z,100.00
2023-05-25T07:21:12.735Z,100.00
2023-05-25T07:26:17.034Z,100.00
2023-05-25T07:31:20.913Z,100.00
2023-05-25T07:36:25.259Z,100.00
2023-05-25T07:41:28.926Z,100.00
2023-05-25T07:46:32.747Z,100.00
2023-05-25T07:51:37.036Z,100.00
2023-05-25T07:56:40.908Z,99.95
2023-05-25T08:01:44.704Z,98.89
2023-05-25T08:06:48.514Z,99.24
2023-05-25T08:11:52.382Z,98.35
2023-05-25T08:16:59.833Z,98.60
2023-05-25T08:22:03.798Z,98.68
2023-05-25T08:27:07.479Z,98.17
2023-05-25T08:32:11.454Z,97.36
2023-05-25T08:37:15.259Z,96.72
2023-05-25T08:42:19.129Z,96.84
2023-05-25T08:47:23.848Z,96.42
2023-05-25T08:52:30.050Z,96.72
2023-05-25T08:57:42.695Z,96.34
2023-05-25T09:03:07.584Z,95.39
2023-05-25T09:08:11.882Z,95.09
2023-05-25T09:18:22.990Z,94.20
2023-05-25T09:23:26.968Z,93.92
2023-05-25T09:28:30.705Z,93.68
2023-05-25T09:33:36.879Z,93.21
2023-05-25T09:38:41.706Z,91.69
2023-05-25T09:44:02.196Z,90.61
2023-05-25T09:49:12.590Z,89.58
2023-05-25T09:54:16.898Z,89.06
2023-05-25T09:59:22.573Z,86.40
2023-05-25T10:04:26.557Z,86.66
2023-05-25T10:09:31.009Z,86.04
2023-05-25T10:14:37.449Z,85.24
2023-05-25T10:19:49.616Z,86.42
2023-05-25T10:25:12.087Z,85.42
2023-05-25T10:30:16.812Z,84.34
2023-05-25T10:35:21.889Z,81.99
2023-05-25T10:40:25.710Z,83.22
2023-05-25T10:45:31.122Z,83.06
2023-05-25T10:50:38.051Z,81.65
2023-05-25T10:55:49.702Z,83.10
2023-05-25T11:01:08.683Z,79.95
2023-05-25T11:06:17.162Z,81.10
2023-05-25T11:11:21.388Z,79.57
2023-05-25T11:16:29.813Z,80.18
2023-05-25T11:21:37.130Z,81.49
2023-05-25T11:26:56.960Z,79.05
2023-05-25T11:32:01.538Z,78.21
2023-05-25T11:37:05.479Z,78.72
2023-05-25T11:42:11.764Z,77.42
2023-05-25T11:47:19.303Z,77.21
2023-05-25T11:52:25.412Z,77.83
2023-05-25T11:57:29.378Z,76.87
2023-05-25T12:02:44.002Z,76.38
2023-05-25T12:07:48.154Z,76.62
2023-05-25T12:12:52.588Z,76.11
2023-05-25T12:17:57.453Z,76.32
2023-05-25T12:23:02.183Z,74.90
2023-05-25T12:28:12.715Z,74.12
2023-05-25T12:33:16.668Z,73.91
2023-05-25T12:38:24.328Z,75.01
2023-05-25T12:43:45.787Z,75.35
2023-05-25T12:48:49.587Z,74.19
2023-05-25T12:53:54.647Z,73.93
2023-05-25T12:59:16.882Z,73.98
2023-05-25T13:04:20.776Z,74.76
2023-05-25T13:09:29.123Z,73.68
2023-05-25T13:14:32.969Z,71.47
2023-05-25T13:19:37.302Z,71.18
2023-05-25T13:24:41.440Z,71.86
2023-05-25T13:29:45.145Z,72.48
2023-05-25T13:34:54.413Z,71.47
2023-05-25T13:40:01.151Z,71.60
2023-05-25T13:45:08.710Z,71.06
2023-05-25T13:50:12.626Z,70.65
2023-05-25T13:55:16.574Z,70.98
2023-05-25T14:00:20.631Z,70.69
2023-05-25T14:05:24.793Z,70.79
2023-05-25T14:10:28.917Z,70.54
2023-05-25T14:15:33.080Z,71.28
2023-05-25T14:20:38.421Z,69.00
2023-05-25T14:25:45.577Z,69.05
2023-05-25T14:30:50.059Z,67.59
2023-05-25T14:35:53.837Z,67.23
2023-05-25T14:40:57.637Z,68.51
2023-05-25T14:46:01.510Z,66.72
2023-05-25T14:51:06.216Z,66.58
2023-05-25T14:56:11.291Z,66.15
2023-05-25T15:01:15.281Z,65.34
2023-05-25T15:06:19.024Z,63.38
2023-05-25T15:11:22.814Z,65.68
2023-05-25T15:16:26.653Z,65.56
2023-05-25T15:21:30.860Z,65.10
2023-05-25T15:26:34.914Z,65.38
2023-05-25T15:31:38.781Z,65.37
2023-05-25T15:36:45.630Z,63.51
2023-05-25T15:41:56.933Z,63.85
2023-05-25T15:47:03.943Z,63.63
2023-05-25T15:52:08.092Z,64.69
2023-05-25T15:57:15.448Z,64.58
2023-05-25T16:02:20.125Z,64.61
2023-05-25T16:07:24.064Z,64.20
2023-05-25T16:12:28.613Z,63.15
2023-05-25T16:17:32.569Z,63.04
2023-05-25T16:22:36.342Z,62.44
2023-05-25T16:27:40.214Z,62.83
2023-05-25T16:32:43.999Z,62.05
2023-05-25T16:37:47.789Z,61.94
2023-05-25T16:42:51.727Z,62.53
2023-05-25T16:47:55.462Z,62.99
2023-05-25T16:52:59.361Z,63.25
2023-05-25T16:58:03.433Z,61.85
2023-05-25T17:03:07.498Z,60.79
2023-05-25T17:08:12.577Z,60.15
2023-05-25T17:13:18.882Z,59.51
2023-05-25T17:18:22.774Z,58.12
2023-05-25T17:23:27.384Z,57.89
2023-05-25T17:28:33.221Z,57.88
2023-05-25T17:33:36.948Z,57.59
2023-05-25T17:38:41.653Z,58.31
2023-05-25T17:43:46.728Z,58.50
2023-05-25T17:48:50.806Z,58.40
2023-05-25T17:53:54.621Z,59.08
2023-05-25T17:58:58.392Z,59.27
2023-05-25T18:04:02.592Z,59.88
2023-05-25T18:09:06.413Z,60.59
2023-05-25T18:14:10.706Z,60.67
2023-05-25T18:19:21.552Z,61.25
2023-05-25T18:24:28.950Z,62.01
2023-05-25T18:29:33.075Z,62.30
2023-05-25T18:34:37.224Z,62.69
2023-05-25T18:39:42.505Z,63.58
2023-05-25T18:44:46.802Z,64.16
2023-05-25T18:49:51.977Z,64.69
2023-05-25T18:54:56.445Z,65.49
2023-05-25T19:00:07.882Z,66.17
2023-05-25T19:05:11.991Z,67.12
2023-05-25T19:10:16.288Z,67.89
2023-05-25T19:15:20.659Z,68.46
2023-05-25T19:20:28.638Z,69.08
2023-05-25T19:25:32.747Z,69.98
2023-05-25T19:30:36.940Z,70.64
2023-05-25T19:35:42.059Z,71.18
2023-05-25T19:40:46.548Z,71.66
2023-05-25T19:45:50.915Z,72.49
2023-05-25T19:50:54.938Z,72.72
2023-05-25T19:56:00.181Z,73.08
2023-05-25T20:01:04.316Z,73.82
2023-05-25T20:06:08.782Z,74.95
2023-05-25T20:11:13.481Z,75.58
2023-05-25T20:16:17.523Z,76.59
2023-05-25T20:21:22.466Z,77.26
2023-05-25T20:26:26.310Z,77.74
2023-05-25T20:31:30.139Z,78.05
2023-05-25T20:36:33.930Z,78.36
2023-05-25T20:41:38.343Z,78.18
2023-05-25T20:46:42.568Z,78.69
2023-05-25T20:51:50.558Z,79.58
2023-05-25T20:56:55.403Z,79.83
2023-05-25T21:01:59.612Z,80.48
2023-05-25T21:07:03.891Z,80.68
2023-05-25T21:12:07.955Z,81.45
2023-05-25T21:17:12.030Z,82.65
2023-05-25T21:22:16.604Z,83.06
2023-05-25T21:27:20.381Z,83.52
2023-05-25T21:32:24.371Z,84.09
2023-05-25T21:37:28.639Z,84.43
2023-05-25T21:42:32.461Z,84.94
2023-05-25T21:47:36.215Z,85.39
2023-05-25T21:52:40.384Z,86.21
2023-05-25T21:57:44.347Z,86.26
2023-05-25T22:02:49.280Z,86.86
2023-05-25T22:07:54.994Z,86.98
2023-05-25T22:12:59.412Z,88.06
2023-05-25T22:18:03.131Z,87.40
2023-05-25T22:23:07.628Z,88.14
2023-05-25T22:28:11.512Z,88.31
2023-05-25T22:33:15.242Z,88.84
2023-05-25T22:38:18.921Z,89.36
2023-05-25T22:43:22.434Z,89.20
2023-05-25T22:48:26.584Z,89.39
2023-05-25T22:53:30.271Z,89.61
2023-05-25T22:58:33.936Z,90.12
2023-05-25T23:03:37.590Z,90.65
2023-05-25T23:08:41.282Z,90.76
2023-05-25T23:13:45.562Z,90.75
2023-05-25T23:18:49.080Z,91.37
2023-05-25T23:23:52.556Z,92.07
2023-05-25T23:28:56.253Z,92.54
2023-05-25T23:34:00.592Z,92.39
2023-05-25T23:45:58.984Z,92.63
2023-05-25T23:51:02.823Z,93.64
2023-05-25T23:56:06.768Z,94.06
